Portada
METAR-TAF:

METAR-TAF

Aeropuertos :

Murcia, España

Base Aérea de Alcantarilla

latitud: 37-57N, longitud: 001-14W, altitud: 75 m

Observación

El informe se hizo hace 1 hora y 34 minutos, a las 18:00 UTC
Viento 2 kt con dirección variable
Temperatura 15°C
Humedad 77%
Presión 1014 hPa
Visibilidad 10 km o más
Nubes dispersas a una altura de 2500 ft
Cielo nuboso a una altura de 5500 ft

METAR: LERI 291800Z VRB02KT 9999 SCT025 BKN055 15/11 Q1014 NOSIG

Hora: 21:34 (19:34 UTC)

Pronóstico

El informe se hizo hace 5 horas y 34 minutos, a las 14:00 UTC
Pronóstico válido del 29 a las 15 UTC al 29 a las 24 UTC
Viento 8 kt del este-sureste
Visibilidad 10 km o más
Nubes dispersas a una altura de 2000 ft
Cielo nuboso a una altura de 3000 ft

TAF: LERI 291400Z 2915/2924 12008KT 9999 SCT020 BKN030

Observaciones y pronósticos meteorológicos de más de 4000 aeropuertos (mensajes METAR y TAF).

Los puntos amarillos y rojos representan las estaciones disponibles.

Ponga el ratón en el punto deseado para ver el nombre de la estación.

Haga clic para ver las observaciones y los pronósticos meteorológicos.

Para cambiar el mapa : haga clic en los botones verdes con una cruz de color negro para hacer un zoom, en el botón verde con un guión para alejar o en las flechas verdes para mapas adyacentes.


METAR-TAF: